createdAt,value
2019-05-10T00:02:20.199Z,983.27
2019-05-10T00:04:50.983Z,964.97
2019-05-10T00:07:21.875Z,998.63
2019-05-10T00:09:52.299Z,995.07
2019-05-10T00:12:23.990Z,964.77
2019-05-10T00:14:55.117Z,977.30
2019-05-10T00:17:26.138Z,999.90
2019-05-10T00:20:02.204Z,999.90
2019-05-10T00:22:33.693Z,988.57
2019-05-10T00:25:05.163Z,968.50
2019-05-10T00:27:35.359Z,955.70
2019-05-10T00:30:06.676Z,975.47
2019-05-10T00:32:36.306Z,999.90
2019-05-10T00:35:07.009Z,999.90
2019-05-10T00:37:36.422Z,936.70
2019-05-10T00:40:06.609Z,981.57
2019-05-10T00:42:35.666Z,999.90
2019-05-10T00:45:06.556Z,997.77
2019-05-10T00:47:35.524Z,960.37
2019-05-10T00:50:05.955Z,973.30
2019-05-10T00:52:34.974Z,987.63
2019-05-10T00:55:17.920Z,977.47
2019-05-10T00:57:35.960Z,978.13
2019-05-10T01:00:05.847Z,978.73
2019-05-10T01:02:34.862Z,999.90
2019-05-10T01:05:04.690Z,997.53
2019-05-10T01:07:33.635Z,946.77
2019-05-10T01:10:02.968Z,996.53
2019-05-10T01:12:32.161Z,971.30
2019-05-10T01:15:01.194Z,980.53
2019-05-10T01:17:30.143Z,971.67
2019-05-10T01:19:59.247Z,999.90
2019-05-10T01:22:28.345Z,999.90
2019-05-10T01:24:57.377Z,999.90
2019-05-10T01:27:26.399Z,999.90
2019-05-10T01:29:55.471Z,963.10
2019-05-10T01:32:24.690Z,939.53
2019-05-10T01:34:53.776Z,963.17
2019-05-10T01:37:22.840Z,968.97
2019-05-10T01:39:51.870Z,980.00
2019-05-10T01:42:20.917Z,993.30
2019-05-10T01:44:49.923Z,922.70
2019-05-10T01:47:18.925Z,950.83
2019-05-10T01:49:47.964Z,961.63
2019-05-10T01:52:17.020Z,934.07
2019-05-10T01:54:46.032Z,923.33
2019-05-10T01:57:15.078Z,938.63
2019-05-10T01:59:44.109Z,969.03
2019-05-10T02:02:13.122Z,944.90
2019-05-10T02:04:42.169Z,938.17
2019-05-10T02:07:11.182Z,965.17
2019-05-10T02:09:40.223Z,939.53
2019-05-10T02:12:09.239Z,999.90
2019-05-10T02:14:38.276Z,935.50
2019-05-10T02:17:07.305Z,999.90
2019-05-10T02:19:36.375Z,928.63
2019-05-10T02:22:05.396Z,951.70
2019-05-10T02:24:34.472Z,938.37
2019-05-10T02:27:03.628Z,961.27
2019-05-10T02:29:33.674Z,997.77
2019-05-10T02:32:03.062Z,976.10
2019-05-10T02:34:32.163Z,950.13
2019-05-10T02:37:01.239Z,918.87
2019-05-10T02:39:30.345Z,965.37
2019-05-10T02:42:00.556Z,980.33
2019-05-10T02:44:29.530Z,993.33
2019-05-10T02:46:58.687Z,907.77
2019-05-10T02:49:29.313Z,999.90
2019-05-10T02:51:58.370Z,904.57
2019-05-10T02:54:27.474Z,912.10
2019-05-10T02:56:56.564Z,933.10
2019-05-10T02:59:26.334Z,999.90
2019-05-10T03:01:56.828Z,909.50
2019-05-10T03:04:26.209Z,999.90
2019-05-10T03:06:56.782Z,999.90
2019-05-10T03:09:27.323Z,999.90
2019-05-10T03:11:57.938Z,979.43
2019-05-10T03:14:28.562Z,879.17
2019-05-10T03:16:58.253Z,916.90
2019-05-10T03:19:27.649Z,902.17
2019-05-10T03:21:58.229Z,918.50
2019-05-10T03:24:28.068Z,915.07
2019-05-10T03:26:57.334Z,955.50
2019-05-10T03:29:26.393Z,933.67
2019-05-10T03:31:55.606Z,928.27
2019-05-10T03:34:25.054Z,999.90
2019-05-10T03:36:54.556Z,906.03
2019-05-10T03:39:23.892Z,898.50
2019-05-10T03:41:53.284Z,875.63
2019-05-10T03:44:22.767Z,892.43
2019-05-10T03:46:52.166Z,947.77
2019-05-10T03:49:21.379Z,999.90
2019-05-10T03:51:50.439Z,864.37
2019-05-10T03:54:19.546Z,909.37
2019-05-10T03:56:48.502Z,848.10
2019-05-10T03:59:17.522Z,844.37
2019-05-10T04:01:46.534Z,854.60
2019-05-10T04:04:15.613Z,833.77
2019-05-10T04:06:44.660Z,825.77
2019-05-10T04:09:13.661Z,887.03
2019-05-10T04:11:42.723Z,856.87
2019-05-10T04:14:11.775Z,861.67
2019-05-10T04:16:40.810Z,854.27
2019-05-10T04:19:09.824Z,882.47
2019-05-10T04:21:38.849Z,826.23
2019-05-10T04:24:07.964Z,819.83
2019-05-10T04:26:37.037Z,790.63
2019-05-10T04:29:06.071Z,880.47
2019-05-10T04:31:35.119Z,894.17
2019-05-10T04:34:04.146Z,862.60
2019-05-10T04:36:33.186Z,882.67
2019-05-10T04:39:02.218Z,877.57
2019-05-10T04:41:32.653Z,895.47
2019-05-10T04:44:01.679Z,878.23
2019-05-10T04:46:30.725Z,902.83
2019-05-10T04:48:59.855Z,884.47
2019-05-10T04:51:28.857Z,903.80
2019-05-10T04:53:57.961Z,913.30
2019-05-10T04:56:26.942Z,900.37
2019-05-10T04:58:56.018Z,930.77
2019-05-10T05:01:25.031Z,956.10
2019-05-10T05:03:54.062Z,933.50
2019-05-10T05:06:23.069Z,970.63
2019-05-10T05:08:52.161Z,954.43
2019-05-10T05:11:21.641Z,941.17
2019-05-10T05:13:50.916Z,938.80
2019-05-10T05:19:40.740Z,981.40
2019-05-10T05:22:08.710Z,985.87
2019-05-10T05:24:38.517Z,945.77
2019-05-10T05:30:29.224Z,999.90
2019-05-10T05:32:58.941Z,999.90
2019-05-10T05:35:29.027Z,993.27
2019-05-10T05:37:58.917Z,995.47
2019-05-10T05:40:29.008Z,977.40
2019-05-10T05:43:02.554Z,999.90
2019-05-10T05:45:34.183Z,999.90
2019-05-10T05:48:02.059Z,997.07
2019-05-10T05:50:31.800Z,966.37
2019-05-10T05:53:01.809Z,999.90
2019-05-10T05:55:32.295Z,999.90
2019-05-10T05:58:05.227Z,999.90
2019-05-10T06:00:37.942Z,973.80
2019-05-10T06:03:06.153Z,994.20
2019-05-10T06:05:37.363Z,999.90
2019-05-10T06:08:21.788Z,943.03
2019-05-10T06:10:38.370Z,982.60
2019-05-10T06:13:07.799Z,966.63
2019-05-10T06:15:37.921Z,992.00
2019-05-10T06:18:09.569Z,951.07
2019-05-10T06:20:44.450Z,999.90
2019-05-10T06:23:10.499Z,973.40
2019-05-10T06:25:42.629Z,924.47
2019-05-10T06:28:25.607Z,999.90
2019-05-10T06:30:43.477Z,959.73
2019-05-10T06:33:13.405Z,999.90
2019-05-10T06:35:42.527Z,990.00
2019-05-10T06:38:11.553Z,985.70
2019-05-10T06:40:46.708Z,949.63
2019-05-10T06:43:13.503Z,999.90
2019-05-10T06:45:46.691Z,999.90
2019-05-10T06:48:12.857Z,926.20
2019-05-10T06:50:41.864Z,999.90
2019-05-10T06:53:11.362Z,989.70
2019-05-10T06:55:40.595Z,999.90
2019-05-10T06:58:09.641Z,933.43
2019-05-10T07:00:44.934Z,999.90
2019-05-10T07:03:09.314Z,999.90
2019-05-10T07:05:38.378Z,999.90
2019-05-10T07:08:16.416Z,999.77
2019-05-10T07:10:38.064Z,984.40
2019-05-10T07:13:07.125Z,997.70
2019-05-10T07:15:41.994Z,985.80
2019-05-10T07:18:06.889Z,910.33
2019-05-10T07:20:35.906Z,968.13
2019-05-10T07:23:06.290Z,999.90
2019-05-10T07:25:37.699Z,923.53
2019-05-10T07:28:09.352Z,999.90
2019-05-10T07:30:41.188Z,988.63
2019-05-10T07:33:08.159Z,999.90
2019-05-10T07:35:38.626Z,999.90
2019-05-10T07:38:07.913Z,924.97
2019-05-10T07:40:37.097Z,999.90
2019-05-10T07:43:06.071Z,993.30
2019-05-10T07:45:35.364Z,933.57
2019-05-10T07:48:08.062Z,999.90
2019-05-10T07:50:35.018Z,999.90
2019-05-10T07:53:04.059Z,999.90
2019-05-10T07:55:34.143Z,999.90
2019-05-10T07:58:05.132Z,999.90
2019-05-10T08:00:38.218Z,896.17
2019-05-10T08:03:13.166Z,971.47
2019-05-10T08:05:38.897Z,875.90
2019-05-10T08:08:09.550Z,877.63
2019-05-10T08:10:39.362Z,835.43
2019-05-10T08:13:08.729Z,842.83
2019-05-10T08:15:38.421Z,818.57
2019-05-10T08:18:09.619Z,799.57
2019-05-10T08:20:49.346Z,845.87
2019-05-10T08:23:10.024Z,875.33
2019-05-10T08:25:43.999Z,999.90
2019-05-10T08:28:09.702Z,892.83
2019-05-10T08:30:52.118Z,768.67
2019-05-10T08:33:13.619Z,749.60
2019-05-10T08:35:45.517Z,903.83
2019-05-10T08:38:12.934Z,884.57
2019-05-10T08:40:43.712Z,983.80
2019-05-10T08:43:16.464Z,983.10
2019-05-10T08:45:49.226Z,901.60
2019-05-10T08:48:14.229Z,982.73
2019-05-10T08:50:50.704Z,929.43
2019-05-10T08:53:16.384Z,958.80
2019-05-10T08:55:44.564Z,884.93
2019-05-10T09:01:16.660Z,805.63
2019-05-10T09:03:32.379Z,926.13
2019-05-10T09:06:05.308Z,999.90
2019-05-10T09:08:34.677Z,999.90
2019-05-10T09:11:06.473Z,999.90
2019-05-10T09:13:37.129Z,821.90
2019-05-10T09:16:04.217Z,862.90
2019-05-10T09:18:37.947Z,819.23
2019-05-10T09:21:08.890Z,783.33
2019-05-10T09:23:34.613Z,845.50
2019-05-10T09:26:10.310Z,999.90
2019-05-10T09:28:34.760Z,999.90
2019-05-10T09:31:17.183Z,999.90
2019-05-10T09:33:34.439Z,800.43
2019-05-10T09:36:03.529Z,999.90
2019-05-10T09:38:34.752Z,816.37
2019-05-10T09:41:03.227Z,809.27
2019-05-10T09:43:32.270Z,910.17
2019-05-10T09:46:02.701Z,785.87
2019-05-10T09:48:33.298Z,999.90
2019-05-10T09:51:03.977Z,999.90
2019-05-10T09:53:33.933Z,999.90
2019-05-10T09:56:03.344Z,829.67
2019-05-10T09:58:32.572Z,803.30
2019-05-10T10:01:13.969Z,867.47
2019-05-10T10:03:39.751Z,810.70
2019-05-10T10:06:07.720Z,818.10
2019-05-10T10:08:33.686Z,897.90
2019-05-10T10:11:13.325Z,967.63
2019-05-10T10:13:39.969Z,999.90
2019-05-10T10:16:09.195Z,977.07
2019-05-10T10:18:37.112Z,728.53
2019-05-10T10:21:05.722Z,960.93
2019-05-10T10:23:37.232Z,999.90
2019-05-10T10:26:07.232Z,784.87
2019-05-10T10:28:39.321Z,881.07
2019-05-10T10:31:08.469Z,799.30
2019-05-10T10:33:38.036Z,898.40
2019-05-10T10:36:09.974Z,845.10
2019-05-10T10:38:45.323Z,883.97
2019-05-10T10:41:08.586Z,781.37
2019-05-10T10:43:37.805Z,904.77
2019-05-10T10:46:12.115Z,988.10
2019-05-10T10:48:38.651Z,794.00
2019-05-10T10:51:08.188Z,955.37
2019-05-10T10:53:37.578Z,820.50
2019-05-10T10:56:07.726Z,857.13
2019-05-10T10:58:36.914Z,861.17
2019-05-10T11:01:10.643Z,999.90
2019-05-10T11:03:36.766Z,999.90
2019-05-10T11:06:05.859Z,772.17
2019-05-10T11:08:34.959Z,931.40
2019-05-10T11:11:03.961Z,931.10
2019-05-10T11:13:44.878Z,838.00
2019-05-10T11:16:09.849Z,999.90
2019-05-10T11:18:34.330Z,999.90
2019-05-10T11:21:03.322Z,859.50
2019-05-10T11:23:38.906Z,959.62
2019-05-10T11:26:03.109Z,924.35
2019-05-10T11:28:38.877Z,838.48
2019-05-10T11:31:02.969Z,961.37
2019-05-10T11:33:33.644Z,881.47
2019-05-10T11:36:07.030Z,864.60
2019-05-10T11:38:33.317Z,852.58
2019-05-10T11:41:07.260Z,920.77
2019-05-10T11:43:33.007Z,999.90
2019-05-10T11:46:02.009Z,836.77
2019-05-10T11:48:37.145Z,900.17
2019-05-10T11:51:05.769Z,931.70
2019-05-10T11:53:33.371Z,916.10
2019-05-10T11:56:07.453Z,872.80
2019-05-10T11:58:37.552Z,892.75
2019-05-10T12:01:14.814Z,861.08
2019-05-10T12:03:34.453Z,999.90
2019-05-10T12:06:08.829Z,999.90
2019-05-10T12:08:34.134Z,880.65
2019-05-10T12:13:33.897Z,858.13
2019-05-10T12:16:02.917Z,850.47
2019-05-10T12:18:36.007Z,906.75
2019-05-10T12:21:09.315Z,984.52
2019-05-10T12:23:33.317Z,888.85
2019-05-10T12:26:05.229Z,957.50
2019-05-10T12:27:14.029Z,943.75
2019-05-10T12:28:35.515Z,902.00
2019-05-10T12:31:07.713Z,999.90
2019-05-10T12:33:35.551Z,888.03
2019-05-10T12:36:04.567Z,942.77
2019-05-10T12:38:35.837Z,944.82
2019-05-10T12:41:05.485Z,859.73
2019-05-10T12:43:34.653Z,999.90
2019-05-10T12:46:03.733Z,977.05
2019-05-10T12:48:35.435Z,918.77
2019-05-10T12:51:08.261Z,892.98
2019-05-10T12:53:36.610Z,892.13
2019-05-10T12:56:04.695Z,803.20
2019-05-10T12:58:33.704Z,901.55
2019-05-10T13:01:02.777Z,920.45
2019-05-10T13:03:33.699Z,799.20
2019-05-10T13:06:02.489Z,901.13
2019-05-10T13:08:31.531Z,925.55
2019-05-10T13:11:00.567Z,999.90
2019-05-10T13:13:30.290Z,799.42
2019-05-10T13:16:03.500Z,795.70
2019-05-10T13:18:52.325Z,843.45
2019-05-10T13:21:21.399Z,986.35
2019-05-10T13:23:53.247Z,899.58
2019-05-10T13:26:21.513Z,825.65
2019-05-10T13:28:50.650Z,804.90
2019-05-10T13:31:20.050Z,923.40
2019-05-10T13:33:49.619Z,808.05
2019-05-10T13:36:18.702Z,895.73
2019-05-10T13:38:49.135Z,999.90
2019-05-10T13:41:24.443Z,961.67
2019-05-10T13:43:49.299Z,865.23
2019-05-10T13:46:18.312Z,999.90
2019-05-10T13:48:47.403Z,971.48
2019-05-10T13:51:16.433Z,847.40
2019-05-10T13:53:45.438Z,829.72
2019-05-10T13:56:14.483Z,921.48
2019-05-10T13:58:43.516Z,899.08
2019-05-10T14:01:13.529Z,872.83
2019-05-10T14:03:48.107Z,823.98
2019-05-10T14:06:13.920Z,863.15
2019-05-10T14:08:48.306Z,870.20
2019-05-10T14:11:13.704Z,997.85
2019-05-10T14:13:43.367Z,864.65
2019-05-10T14:16:18.121Z,813.63
2019-05-10T14:18:44.276Z,807.60
2019-05-10T14:21:13.265Z,923.60
2019-05-10T14:23:42.365Z,827.52
2019-05-10T14:26:16.167Z,782.15
2019-05-10T14:28:42.044Z,858.98
2019-05-10T14:31:11.065Z,845.05
2019-05-10T14:33:40.113Z,834.67
2019-05-10T14:36:09.198Z,803.05
2019-05-10T14:38:38.218Z,774.88
2019-05-10T14:41:10.915Z,781.05
2019-05-10T14:43:37.879Z,878.27
2019-05-10T14:46:13.521Z,985.17
2019-05-10T14:48:37.648Z,816.55
2019-05-10T14:51:11.053Z,815.30
2019-05-10T14:53:37.437Z,821.70
2019-05-10T14:56:07.952Z,864.48
2019-05-10T14:58:37.754Z,969.37
2019-05-10T15:01:06.775Z,784.22
2019-05-10T15:03:44.887Z,888.98
2019-05-10T15:06:06.542Z,808.30
2019-05-10T15:08:35.609Z,828.15
2019-05-10T15:11:04.618Z,819.08
2019-05-10T15:13:35.258Z,796.70
2019-05-10T15:16:08.372Z,797.92
2019-05-10T15:18:35.428Z,851.05
2019-05-10T15:21:04.541Z,796.15
2019-05-10T15:23:33.599Z,826.13
2019-05-10T15:26:10.155Z,830.95
2019-05-10T15:28:34.311Z,838.95
2019-05-10T15:31:05.228Z,817.50
2019-05-10T15:33:35.840Z,877.30
2019-05-10T15:36:04.847Z,823.87
2019-05-10T15:38:39.177Z,809.17
2019-05-10T15:41:04.516Z,856.90
2019-05-10T15:43:33.560Z,782.75
2019-05-10T15:46:02.611Z,877.20
2019-05-10T15:48:31.657Z,851.02
2019-05-10T15:51:00.776Z,762.87
2019-05-10T15:53:29.820Z,784.40
2019-05-10T15:56:03.439Z,885.37
2019-05-10T15:58:30.594Z,924.65
2019-05-10T16:01:00.191Z,779.87
2019-05-10T16:03:29.208Z,931.58
2019-05-10T16:06:00.821Z,759.05
2019-05-10T16:08:30.432Z,766.33
2019-05-10T16:10:59.628Z,815.62
2019-05-10T16:13:28.577Z,786.38
2019-05-10T16:15:59.438Z,773.70
2019-05-10T16:18:33.423Z,871.40
2019-05-10T16:20:59.343Z,781.13
2019-05-10T16:23:28.353Z,771.55
2019-05-10T16:25:57.395Z,780.33
2019-05-10T16:28:26.388Z,832.15
2019-05-10T16:30:55.478Z,791.43
2019-05-10T16:33:24.513Z,799.37
2019-05-10T16:35:53.660Z,762.53
2019-05-10T16:38:22.615Z,781.97
2019-05-10T16:40:58.334Z,849.00
2019-05-10T16:43:24.784Z,821.47
2019-05-10T16:52:49.845Z,771.10
2019-05-10T16:55:18.866Z,791.87
2019-05-10T16:57:47.928Z,782.83
2019-05-10T17:00:18.193Z,790.37
2019-05-10T17:02:47.325Z,822.83
2019-05-10T17:05:17.425Z,794.30
2019-05-10T17:07:46.672Z,794.13
2019-05-10T17:10:15.786Z,819.60
2019-05-10T17:12:44.783Z,771.13
2019-05-10T17:15:13.909Z,798.13
2019-05-10T17:17:44.911Z,766.33
2019-05-10T17:20:15.895Z,789.03
2019-05-10T17:22:44.756Z,776.90
2019-05-10T17:25:15.037Z,781.47
2019-05-10T17:27:43.998Z,801.80
2019-05-10T17:30:13.268Z,816.10
2019-05-10T17:32:42.457Z,814.47
2019-05-10T17:35:11.613Z,840.83
2019-05-10T17:37:40.843Z,816.47
2019-05-10T17:40:10.643Z,801.33
2019-05-10T17:42:43.285Z,783.77
2019-05-10T17:45:11.614Z,811.63
2019-05-10T17:47:40.814Z,859.87
2019-05-10T17:50:10.255Z,809.10
2019-05-10T17:52:48.736Z,819.87
2019-05-10T17:55:18.551Z,797.10
2019-05-10T17:57:48.536Z,821.73
2019-05-10T18:00:18.315Z,805.23
2019-05-10T18:02:47.458Z,815.27
2019-05-10T18:05:16.709Z,789.87
2019-05-10T18:07:45.749Z,834.50
2019-05-10T18:10:15.173Z,833.53
2019-05-10T18:12:44.273Z,838.87
2019-05-10T18:15:13.584Z,821.20
2019-05-10T18:17:42.604Z,811.43
2019-05-10T18:20:11.632Z,843.27
2019-05-10T18:22:45.313Z,808.50
2019-05-10T18:25:19.446Z,816.23
2019-05-10T18:27:42.457Z,838.37
2019-05-10T18:30:11.845Z,823.33
2019-05-10T18:32:41.988Z,773.20
2019-05-10T18:35:14.572Z,803.73
2019-05-10T18:37:41.997Z,846.00
2019-05-10T18:40:11.201Z,836.30
2019-05-10T18:42:40.323Z,792.00
2019-05-10T18:45:10.492Z,831.43
2019-05-10T18:47:39.873Z,829.30
2019-05-10T18:50:08.950Z,789.43
2019-05-10T18:52:38.046Z,833.80
2019-05-10T18:55:07.226Z,781.17
2019-05-10T18:57:36.336Z,803.00
2019-05-10T19:00:05.799Z,799.67
2019-05-10T19:02:35.457Z,803.13
2019-05-10T19:05:06.094Z,794.63
2019-05-10T19:07:35.305Z,788.83
2019-05-10T19:10:06.217Z,783.37
2019-05-10T19:12:36.282Z,737.83
2019-05-10T19:15:09.005Z,745.37
2019-05-10T19:17:40.478Z,924.70
2019-05-10T19:20:09.507Z,692.73
2019-05-10T19:22:41.285Z,807.07
2019-05-10T19:25:12.321Z,759.53
2019-05-10T19:27:44.730Z,711.60
2019-05-10T19:30:12.458Z,698.53
2019-05-10T19:32:41.610Z,729.13
2019-05-10T19:35:10.708Z,715.60
2019-05-10T19:37:39.870Z,664.23
2019-05-10T19:40:09.300Z,712.53
2019-05-10T19:42:43.520Z,774.27
2019-05-10T19:45:12.943Z,709.03
2019-05-10T19:47:40.112Z,701.97
2019-05-10T19:50:09.325Z,687.47
2019-05-10T19:52:38.402Z,716.40
2019-05-10T19:55:07.596Z,698.27
2019-05-10T19:57:36.596Z,732.70
2019-05-10T20:00:06.829Z,706.43
2019-05-10T20:02:36.027Z,684.13
2019-05-10T20:05:05.228Z,717.23
2019-05-10T20:07:45.201Z,672.50
2019-05-10T20:10:07.776Z,736.33
2019-05-10T20:12:36.980Z,717.13
2019-05-10T20:15:07.924Z,707.10
2019-05-10T20:17:37.510Z,670.67
2019-05-10T20:20:06.763Z,718.17
2019-05-10T20:22:36.415Z,700.83
2019-05-10T20:25:06.691Z,720.53
2019-05-10T20:27:35.872Z,744.50
2019-05-10T20:30:06.357Z,718.93
2019-05-10T20:32:36.569Z,714.87
2019-05-10T20:35:08.147Z,734.80
2019-05-10T20:37:37.193Z,746.13
2019-05-10T20:40:06.575Z,714.20
2019-05-10T20:42:35.646Z,726.80
2019-05-10T20:45:08.202Z,724.80
2019-05-10T20:47:36.457Z,766.57
2019-05-10T20:50:05.635Z,817.37
2019-05-10T20:52:34.637Z,848.53
2019-05-10T20:55:04.018Z,824.83
2019-05-10T20:57:33.168Z,866.80
2019-05-10T21:00:02.208Z,826.90
2019-05-10T21:02:32.013Z,860.17
2019-05-10T21:05:01.307Z,824.40
2019-05-10T21:07:30.442Z,885.73
2019-05-10T21:10:18.794Z,881.97
2019-05-10T21:12:47.834Z,894.43
2019-05-10T21:15:16.922Z,891.40
2019-05-10T21:17:45.982Z,870.70
2019-05-10T21:20:15.102Z,874.07
2019-05-10T21:22:44.147Z,897.87
2019-05-10T21:25:13.270Z,879.17
2019-05-10T21:27:42.414Z,872.13
2019-05-10T21:30:11.825Z,872.30
2019-05-10T21:32:40.914Z,839.67
2019-05-10T21:35:10.038Z,838.63
2019-05-10T21:37:39.077Z,909.63
2019-05-10T21:40:08.811Z,891.17
2019-05-10T21:42:37.839Z,880.33
2019-05-10T21:45:07.115Z,860.63
2019-05-10T21:47:50.730Z,865.50
2019-05-10T21:50:06.940Z,841.47
2019-05-10T21:52:35.966Z,789.40
2019-05-10T21:55:05.107Z,826.93
2019-05-10T21:57:34.090Z,814.87
2019-05-10T22:00:03.965Z,857.17
2019-05-10T22:02:34.610Z,890.20
2019-05-10T22:05:04.828Z,866.70
2019-05-10T22:07:34.977Z,921.07
2019-05-10T22:10:05.728Z,972.97
2019-05-10T22:12:34.857Z,975.97
2019-05-10T22:15:04.791Z,999.90
2019-05-10T22:17:33.917Z,999.90
2019-05-10T22:20:04.136Z,998.13
2019-05-10T22:22:33.381Z,999.90
2019-05-10T22:25:02.465Z,976.30
2019-05-10T22:27:31.833Z,980.47
2019-05-10T22:30:00.981Z,960.33
2019-05-10T22:32:30.112Z,938.27
2019-05-10T22:34:59.297Z,949.33
2019-05-10T22:37:28.340Z,976.17
2019-05-10T22:39:57.413Z,977.73
2019-05-10T22:42:26.481Z,938.30
2019-05-10T22:44:55.593Z,967.73
2019-05-10T22:47:25.448Z,999.90
2019-05-10T22:49:54.764Z,999.90
2019-05-10T22:52:23.875Z,993.10
2019-05-10T22:54:52.925Z,993.40
2019-05-10T22:57:21.996Z,954.30
2019-05-10T22:59:51.099Z,999.90
2019-05-10T23:02:20.260Z,999.90
2019-05-10T23:04:49.397Z,992.60
2019-05-10T23:07:18.501Z,999.90
2019-05-10T23:09:47.558Z,999.90
2019-05-10T23:12:16.662Z,999.90
2019-05-10T23:14:45.830Z,999.90
2019-05-10T23:17:14.936Z,999.90
2019-05-10T23:19:44.042Z,999.90
2019-05-10T23:22:13.500Z,999.90
2019-05-10T23:24:42.741Z,999.90
2019-05-10T23:27:11.852Z,999.90
2019-05-10T23:29:41.085Z,999.90
2019-05-10T23:32:10.253Z,999.90
2019-05-10T23:34:39.356Z,999.90
2019-05-10T23:37:08.449Z,999.90
2019-05-10T23:39:41.142Z,999.90
2019-05-10T23:42:08.269Z,999.90
2019-05-10T23:44:38.328Z,999.90
2019-05-10T23:47:07.395Z,999.90
2019-05-10T23:49:36.456Z,999.90
2019-05-10T23:52:05.803Z,999.90
2019-05-10T23:54:35.109Z,999.90
2019-05-10T23:57:04.213Z,999.90
2019-05-10T23:59:33.393Z,999.90
